Allerton, Illinois
Current Conditions -  °F | °C
As of 12:53 PM on Friday 28 Nov 2014 (Local Time) from KCMI Reporting Station
Clear Clear  
Wind Chill: 24°   Ceiling: Unl
Heat Index: 36°   Visibility: 9mi
Dew Point: 29°   Wind: 25mph
Humidity: 76%   Direction: 170°S
Pressure: 30.07"   Gusts: NA
Location:  39.91°N, 87.94°W
Report Text: KCMI 281853Z 17022KT 9SM CLR 02/M02 A3007 RMK AO2 PK WND 17029/1820 SLP191 T00221017 $
Loading
Personal Weather Stations






























Interactive Weather Map New forecast layout! Learn more

10-Day Weather Forecast

Advertisements
Track Severe Weather on mobile